Time;durP1;ratioP1;P1;durP2;ratioP2;P2;SDS_P1;SDS_P2;PMS_P1;PMS_P2;Temp;Humidity;BMP_temperature;BMP_pressure;BME280_temperature;BME280_humidity;BME280_pressure;Samples;Min_cycle;Max_cycle;Signal;HPM_P1;HPM_P2
2024/05/03 00:00:31;;;;;;;9.90;7.32;;;17.50;99.90;;;;;;7507607;26;20319;-78
2024/05/03 00:03:57;;;;;;;13.10;7.57;;;17.50;99.90;;;;;;7521087;26;20221;-79
2024/05/03 00:07:20;;;;;;;8.32;7.50;;;17.50;99.90;;;;;;7522623;26;20228;-80
2024/05/03 00:10:43;;;;;;;10.82;8.07;;;17.50;99.90;;;;;;7520820;26;20275;-78
2024/05/03 00:14:06;;;;;;;8.82;7.47;;;17.40;99.90;;;;;;7520956;26;20583;-78
2024/05/03 00:17:29;;;;;;;9.35;7.25;;;17.40;99.90;;;;;;7509150;26;20233;-79
2024/05/03 00:20:54;;;;;;;11.80;7.40;;;17.30;99.90;;;;;;7509842;26;20702;-78
2024/05/03 00:24:18;;;;;;;10.38;7.43;;;17.50;99.90;;;;;;7488040;26;20280;-78
2024/05/03 00:27:41;;;;;;;8.25;7.38;;;17.50;99.90;;;;;;7512461;26;20538;-77
2024/05/03 00:31:04;;;;;;;10.32;7.50;;;17.40;99.90;;;;;;7509798;26;20280;-80
2024/05/03 00:34:27;;;;;;;8.52;7.65;;;17.40;99.90;;;;;;7508701;26;20236;-78
2024/05/03 00:37:52;;;;;;;8.20;7.15;;;17.50;99.90;;;;;;7520317;26;20531;-78
2024/05/03 00:41:15;;;;;;;8.15;7.35;;;17.50;99.90;;;;;;7520952;26;20228;-79
2024/05/03 00:44:38;;;;;;;9.82;7.55;;;17.40;99.90;;;;;;7516066;26;20233;-78
2024/05/03 00:48:02;;;;;;;11.55;8.45;;;17.30;99.90;;;;;;7492651;26;20283;-79
2024/05/03 00:51:26;;;;;;;13.50;8.00;;;17.30;99.90;;;;;;7500709;26;20272;-79
2024/05/03 00:55:01;;;;;;;10.38;7.68;;;17.40;99.90;;;;;;7522208;26;20268;-79
2024/05/03 00:58:23;;;;;;;10.40;7.05;;;17.50;99.90;;;;;;7506067;26;20301;-79
2024/05/03 01:01:47;;;;;;;10.07;7.25;;;17.40;99.90;;;;;;7515914;26;20398;-77
2024/05/03 01:05:10;;;;;;;9.48;6.97;;;17.30;99.90;;;;;;7516183;26;20818;-78
2024/05/03 01:08:33;;;;;;;9.25;7.40;;;17.20;99.90;;;;;;7519956;26;20271;-79
2024/05/03 01:11:58;;;;;;;9.23;7.20;;;17.20;99.90;;;;;;7507104;26;20564;-79
2024/05/03 01:15:22;;;;;;;10.73;8.30;;;17.10;99.90;;;;;;7498547;26;20312;-78
2024/05/03 01:18:45;;;;;;;8.32;7.53;;;17.00;99.90;;;;;;7518810;26;20228;-79
2024/05/03 01:22:15;;;;;;;12.82;8.50;;;16.90;99.90;;;;;;7518153;26;20232;-78
2024/05/03 01:25:45;;;;;;;10.57;8.10;;;16.90;99.90;;;;;;7520447;26;20237;-79
2024/05/03 01:29:08;;;;;;;9.18;7.28;;;16.80;99.90;;;;;;7510819;26;20228;-76
2024/05/03 01:32:31;;;;;;;9.77;8.77;;;16.80;99.90;;;;;;7508718;26;20282;-77
2024/05/03 01:35:55;;;;;;;9.63;7.72;;;16.70;99.90;;;;;;7520194;26;20229;-78
2024/05/03 01:39:18;;;;;;;8.25;7.43;;;16.70;99.90;;;;;;7515280;26;20224;-77
2024/05/03 01:42:43;;;;;;;8.65;7.78;;;16.60;99.90;;;;;;7502870;26;20275;-77
2024/05/03 01:46:07;;;;;;;9.13;8.18;;;16.60;99.90;;;;;;7517811;26;20228;-77
2024/05/03 01:49:30;;;;;;;13.20;8.35;;;16.50;99.90;;;;;;7505781;26;20233;-77
2024/05/03 01:52:53;;;;;;;8.60;7.78;;;16.50;99.90;;;;;;7517168;26;20256;-78
2024/05/03 01:56:17;;;;;;;8.60;7.88;;;16.60;99.90;;;;;;7501090;26;20244;-78
2024/05/03 01:59:43;;;;;;;11.45;7.57;;;16.50;99.90;;;;;;7503402;26;20255;-78
2024/05/03 02:03:06;;;;;;;9.45;8.40;;;16.40;99.90;;;;;;7501877;26;20228;-79
2024/05/03 02:06:30;;;;;;;9.13;8.20;;;16.40;99.90;;;;;;7506465;26;20269;-77
2024/05/03 02:09:53;;;;;;;8.40;7.50;;;16.40;99.90;;;;;;7516873;26;20225;-78
2024/05/03 02:13:16;;;;;;;12.77;8.38;;;16.40;99.90;;;;;;7517783;26;20582;-77
2024/05/03 02:16:42;;;;;;;8.65;7.80;;;16.40;99.90;;;;;;7517105;26;20283;-79
2024/05/03 02:20:06;;;;;;;9.25;8.30;;;16.40;99.90;;;;;;7496341;26;20571;-74
2024/05/03 02:23:29;;;;;;;9.85;7.72;;;16.40;99.90;;;;;;7493499;26;20727;-79
2024/05/03 02:26:52;;;;;;;12.60;9.23;;;16.50;99.90;;;;;;7506317;26;20264;-79
2024/05/03 02:30:15;;;;;;;9.43;8.43;;;16.50;99.90;;;;;;7497264;26;20232;-79
2024/05/03 02:33:41;;;;;;;11.48;8.85;;;16.50;99.90;;;;;;7518529;26;20233;-76
2024/05/03 02:37:04;;;;;;;9.82;8.82;;;16.30;99.90;;;;;;7519371;26;20349;-76
2024/05/03 02:40:26;;;;;;;9.90;9.00;;;16.20;99.90;;;;;;7525923;26;20387;-78
2024/05/03 02:43:49;;;;;;;14.65;8.93;;;16.10;99.90;;;;;;7521777;26;20279;-76
2024/05/03 02:47:12;;;;;;;10.38;8.68;;;16.20;99.90;;;;;;7515595;26;20317;-78
2024/05/03 02:50:38;;;;;;;10.25;7.78;;;16.10;99.90;;;;;;7519005;26;20229;-77
2024/05/03 02:54:01;;;;;;;11.70;9.60;;;16.10;99.90;;;;;;7510957;26;20266;-78
2024/05/03 02:57:24;;;;;;;9.13;8.48;;;16.00;99.90;;;;;;7523206;26;20228;-77
2024/05/03 03:00:47;;;;;;;11.73;9.50;;;16.00;99.90;;;;;;7522817;26;20316;-78
2024/05/03 03:04:10;;;;;;;10.57;9.55;;;16.10;99.90;;;;;;7523300;26;20236;-77
2024/05/03 03:07:36;;;;;;;13.43;8.55;;;16.20;99.90;;;;;;7520592;26;20321;-78
2024/05/03 03:10:59;;;;;;;11.30;9.35;;;16.30;99.90;;;;;;7521966;26;20275;-77
2024/05/03 03:14:22;;;;;;;10.65;9.25;;;16.30;99.90;;;;;;7511639;26;20282;-78
2024/05/03 03:17:46;;;;;;;11.85;10.68;;;16.20;99.90;;;;;;7509564;26;20275;-77
2024/05/03 03:21:09;;;;;;;11.13;8.52;;;16.20;99.90;;;;;;7497457;26;20275;-77
2024/05/03 03:24:34;;;;;;;10.35;9.43;;;16.30;99.90;;;;;;7521421;26;20233;-77
2024/05/03 03:27:57;;;;;;;10.18;9.27;;;16.40;99.90;;;;;;7517834;26;20645;-78
2024/05/03 03:31:20;;;;;;;12.52;10.48;;;16.40;99.90;;;;;;7497039;26;20272;-78
2024/05/03 03:34:44;;;;;;;11.20;10.30;;;16.60;99.90;;;;;;7522422;26;20317;-77
2024/05/03 03:38:09;;;;;;;11.77;10.05;;;16.60;99.90;;;;;;7526390;26;20233;-80
2024/05/03 03:41:35;;;;;;;10.63;9.65;;;16.50;99.90;;;;;;7522828;26;20224;-79
2024/05/03 03:44:59;;;;;;;13.43;10.40;;;16.50;99.90;;;;;;7523534;26;20264;-80
2024/05/03 03:48:22;;;;;;;10.38;9.38;;;16.40;99.90;;;;;;7520114;26;20228;-77
2024/05/03 03:51:45;;;;;;;12.00;10.85;;;16.50;99.90;;;;;;7523332;26;20319;-77
2024/05/03 03:55:09;;;;;;;12.27;10.15;;;16.40;99.90;;;;;;7524164;26;20282;-79
2024/05/03 03:58:34;;;;;;;14.43;10.27;;;16.50;99.90;;;;;;7511331;26;20233;-78
2024/05/03 04:01:57;;;;;;;13.25;11.60;;;16.50;99.90;;;;;;7521550;26;20224;-77
2024/05/03 04:05:20;;;;;;;12.02;10.75;;;16.30;99.90;;;;;;7524363;26;20232;-77
2024/05/03 04:08:46;;;;;;;7.35;6.75;;;16.30;99.90;;;;;;7512194;26;20349;-78
2024/05/03 04:12:11;;;;;;;11.25;10.10;;;16.30;99.90;;;;;;7523512;26;20284;-78
2024/05/03 04:15:36;;;;;;;7.85;7.15;;;16.30;99.90;;;;;;7517504;26;20293;-78
2024/05/03 04:18:59;;;;;;;8.40;7.28;;;16.30;99.90;;;;;;7492014;26;20229;-78
2024/05/03 04:22:22;;;;;;;8.88;8.05;;;16.40;99.90;;;;;;7495396;26;20276;-77
2024/05/03 04:25:45;;;;;;;8.25;7.65;;;16.50;99.90;;;;;;7511686;26;20564;-78
2024/05/03 04:29:09;;;;;;;7.88;7.28;;;16.70;99.90;;;;;;7512253;26;20279;-79
2024/05/03 04:32:35;;;;;;;9.00;6.70;;;16.90;99.90;;;;;;7516649;26;20584;-77
2024/05/03 04:35:58;;;;;;;7.20;6.60;;;16.80;99.90;;;;;;7499337;26;20228;-78
2024/05/03 04:39:21;;;;;;;6.07;5.53;;;16.80;99.90;;;;;;7498810;26;20242;-77
2024/05/03 04:42:44;;;;;;;8.80;7.57;;;16.70;99.90;;;;;;7511708;26;20230;-77
2024/05/03 04:46:07;;;;;;;6.97;6.43;;;16.70;99.90;;;;;;7504706;26;20272;-78
2024/05/03 04:49:33;;;;;;;6.82;6.22;;;16.80;99.90;;;;;;7512422;26;20332;-80
2024/05/03 04:52:56;;;;;;;7.53;6.80;;;16.90;99.90;;;;;;7524186;26;20228;-81
2024/05/03 04:56:20;;;;;;;7.35;6.85;;;16.50;99.90;;;;;;7519127;26;20228;-78
2024/05/03 04:59:43;;;;;;;7.70;7.00;;;16.70;99.90;;;;;;7494030;26;20275;-78
2024/05/03 05:03:07;;;;;;;7.32;6.75;;;16.80;99.90;;;;;;7508607;26;20232;-78
2024/05/03 05:06:33;;;;;;;7.25;6.65;;;16.70;99.90;;;;;;7517631;26;20275;-78
2024/05/03 05:09:56;;;;;;;7.38;6.68;;;16.60;99.90;;;;;;7507102;26;20323;-78
2024/05/03 05:13:19;;;;;;;7.10;6.53;;;16.70;99.90;;;;;;7504995;26;20284;-78
2024/05/03 05:16:42;;;;;;;8.43;7.72;;;16.80;99.90;;;;;;7507449;26;20233;-78
2024/05/03 05:20:07;;;;;;;8.18;7.47;;;17.00;99.90;;;;;;7493128;26;20305;-77
2024/05/03 05:23:30;;;;;;;7.55;6.97;;;16.90;99.90;;;;;;7515276;26;20275;-77
2024/05/03 05:26:54;;;;;;;9.93;9.02;;;16.60;99.90;;;;;;7518473;26;20228;-77
2024/05/03 05:30:18;;;;;;;8.15;7.55;;;16.50;99.90;;;;;;7504447;26;20228;-79
2024/05/03 05:33:41;;;;;;;8.80;8.00;;;16.60;99.90;;;;;;7505860;26;20578;-78
2024/05/03 05:37:04;;;;;;;10.15;9.25;;;16.70;99.90;;;;;;7502663;26;20232;-80
2024/05/03 05:40:30;;;;;;;8.38;7.78;;;16.60;99.90;;;;;;7513977;26;20233;-78
2024/05/03 05:43:53;;;;;;;9.32;8.32;;;16.60;99.90;;;;;;7503374;26;20232;-78
2024/05/03 05:47:16;;;;;;;10.45;9.45;;;16.40;99.90;;;;;;7515982;26;20329;-77
2024/05/03 05:50:39;;;;;;;10.27;9.45;;;16.10;99.90;;;;;;7497055;26;20266;-78
2024/05/03 05:54:02;;;;;;;9.52;8.73;;;16.10;99.90;;;;;;7519358;26;20298;-79
2024/05/03 05:57:29;;;;;;;11.10;10.00;;;16.20;99.90;;;;;;7511841;26;20232;-76
2024/05/03 06:00:52;;;;;;;9.70;9.10;;;16.30;99.90;;;;;;7517857;26;20232;-78
2024/05/03 06:04:17;;;;;;;12.07;11.13;;;16.40;99.90;;;;;;7509721;26;20299;-78
2024/05/03 06:07:40;;;;;;;12.23;11.15;;;16.60;99.90;;;;;;7525319;26;20237;-77
2024/05/03 06:11:03;;;;;;;11.00;10.02;;;16.70;99.90;;;;;;7527992;26;20894;-77
2024/05/03 06:14:28;;;;;;;9.05;7.40;;;16.80;99.90;;;;;;7509322;26;20275;-80
2024/05/03 06:17:52;;;;;;;8.90;8.20;;;16.80;99.90;;;;;;7509565;26;20273;-79
2024/05/03 06:21:15;;;;;;;9.63;8.80;;;16.60;99.90;;;;;;7512691;26;20353;-77
2024/05/03 06:24:38;;;;;;;10.88;9.90;;;16.70;99.90;;;;;;7522545;26;20667;-77
2024/05/03 06:28:01;;;;;;;9.13;8.50;;;16.60;99.90;;;;;;7505311;26;20758;-77
2024/05/03 06:31:27;;;;;;;10.05;9.25;;;16.60;99.90;;;;;;7501318;26;20244;-77
2024/05/03 06:34:50;;;;;;;11.00;10.10;;;16.80;99.90;;;;;;7517125;26;20363;-77
2024/05/03 06:38:13;;;;;;;8.98;8.38;;;16.90;99.90;;;;;;7509942;26;20232;-79
2024/05/03 06:41:36;;;;;;;10.23;9.52;;;16.80;99.90;;;;;;7499320;26;20776;-78
2024/05/03 06:44:59;;;;;;;10.52;9.75;;;16.80;99.90;;;;;;7503417;26;20226;-78
2024/05/03 06:48:27;;;;;;;10.57;9.68;;;16.70;99.90;;;;;;7488715;26;20272;-79
2024/05/03 06:51:50;;;;;;;9.65;8.85;;;16.60;99.90;;;;;;7509656;26;20228;-78
2024/05/03 06:55:13;;;;;;;10.48;9.35;;;16.60;99.90;;;;;;7513210;26;20774;-77
2024/05/03 06:58:37;;;;;;;9.70;8.95;;;16.70;99.90;;;;;;7521554;26;20297;-76
2024/05/03 07:02:00;;;;;;;8.98;8.38;;;16.70;99.90;;;;;;7508914;26;20272;-79
2024/05/03 07:05:25;;;;;;;8.73;8.13;;;16.60;99.90;;;;;;7520658;26;20279;-77
2024/05/03 07:08:48;;;;;;;9.98;9.32;;;16.70;99.90;;;;;;7510634;26;20280;-77
2024/05/03 07:12:12;;;;;;;9.82;9.00;;;17.00;99.90;;;;;;7505531;26;20232;-77
2024/05/03 07:15:35;;;;;;;8.68;8.05;;;17.10;99.90;;;;;;7521080;26;20279;-77
2024/05/03 07:18:58;;;;;;;10.30;9.40;;;17.40;99.90;;;;;;7521813;26;20233;-77
2024/05/03 07:22:24;;;;;;;10.25;9.35;;;17.50;99.90;;;;;;7516720;26;20228;-78
2024/05/03 07:25:47;;;;;;;24.63;22.73;;;17.60;99.90;;;;;;7514458;26;20234;-78
2024/05/03 07:29:11;;;;;;;12.35;11.45;;;17.60;99.90;;;;;;7507956;26;20595;-79
2024/05/03 07:32:36;;;;;;;12.95;11.85;;;17.70;99.90;;;;;;7518927;26;20630;-78
2024/05/03 07:35:59;;;;;;;12.15;11.13;;;17.70;99.90;;;;;;7523824;26;20318;-79
2024/05/03 07:39:25;;;;;;;14.43;13.07;;;17.80;99.90;;;;;;7507915;26;21041;-80
2024/05/03 07:42:48;;;;;;;10.05;9.25;;;17.90;99.90;;;;;;7526520;26;20220;-82
2024/05/03 07:46:11;;;;;;;10.00;9.30;;;18.00;99.90;;;;;;7516380;26;20229;-81
2024/05/03 07:49:34;;;;;;;8.95;8.35;;;18.10;99.90;;;;;;7510777;26;20228;-78
2024/05/03 07:52:59;;;;;;;10.15;9.13;;;18.10;99.90;;;;;;7494473;26;20720;-79
2024/05/03 07:56:25;;;;;;;9.68;8.98;;;18.30;99.90;;;;;;7524404;26;20362;-81
2024/05/03 07:59:49;;;;;;;9.43;8.73;;;18.00;99.90;;;;;;7524647;26;20276;-79
2024/05/03 08:03:12;;;;;;;9.27;8.57;;;18.00;99.90;;;;;;7525039;26;20275;-79
2024/05/03 08:06:35;;;;;;;10.68;9.75;;;18.00;99.90;;;;;;7503616;26;20233;-77
2024/05/03 08:09:58;;;;;;;10.95;10.07;;;18.10;99.90;;;;;;7507645;26;20245;-77
2024/05/03 08:13:24;;;;;;;10.45;9.43;;;17.80;99.90;;;;;;7511224;26;20283;-79
2024/05/03 08:16:47;;;;;;;14.88;13.50;;;17.90;99.90;;;;;;7491363;26;20731;-79
2024/05/03 08:20:10;;;;;;;11.75;10.82;;;18.00;99.90;;;;;;7505632;26;20233;-78
2024/05/03 08:23:35;;;;;;;8.95;8.25;;;18.00;99.90;;;;;;7508651;26;20720;-78
2024/05/03 08:26:58;;;;;;;11.70;10.52;;;18.00;99.90;;;;;;7505527;26;20279;-81
2024/05/03 08:30:24;;;;;;;9.52;8.82;;;18.20;99.90;;;;;;7508002;26;20335;-79
2024/05/03 08:33:47;;;;;;;9.18;8.57;;;18.40;99.90;;;;;;7487815;26;20233;-79
2024/05/03 08:37:10;;;;;;;8.73;8.05;;;18.20;99.90;;;;;;7505613;26;20574;-80
2024/05/03 08:40:33;;;;;;;9.05;8.35;;;18.40;99.90;;;;;;7488341;26;20288;-78
2024/05/03 08:44:01;;;;;;;9.20;8.60;;;18.80;99.90;;;;;;7495861;26;20237;-80
2024/05/03 08:47:30;;;;;;;10.13;9.32;;;18.80;99.90;;;;;;7494578;26;20778;-80
2024/05/03 08:50:54;;;;;;;9.98;9.27;;;18.70;99.90;;;;;;7501409;26;20278;-80
2024/05/03 08:54:20;;;;;;;9.63;8.77;;;18.60;99.90;;;;;;7505889;26;20229;-79
2024/05/03 08:57:44;;;;;;;9.73;8.93;;;18.70;99.90;;;;;;7498785;26;20228;-80
2024/05/03 09:01:08;;;;;;;8.65;8.07;;;18.90;99.90;;;;;;7498122;26;20228;-79
2024/05/03 09:04:35;;;;;;;10.60;9.60;;;18.70;99.90;;;;;;7520675;26;20340;-79
2024/05/03 09:08:06;;;;;;;9.60;8.90;;;18.50;99.90;;;;;;7492549;26;20668;-80
2024/05/03 09:11:29;;;;;;;9.82;8.85;;;18.50;99.90;;;;;;7520149;26;20237;-81
2024/05/03 09:14:53;;;;;;;9.48;8.68;;;18.30;99.90;;;;;;7511785;26;20742;-80
2024/05/03 09:18:17;;;;;;;10.18;9.48;;;17.80;99.90;;;;;;7503417;26;20249;-80
2024/05/03 09:21:42;;;;;;;11.20;10.38;;;17.80;99.90;;;;;;7507590;26;20229;-79
2024/05/03 09:25:06;;;;;;;8.77;8.18;;;17.90;99.90;;;;;;7488891;26;20257;-82
2024/05/03 09:28:29;;;;;;;12.50;11.50;;;17.90;99.90;;;;;;7507242;26;20276;-81
2024/05/03 09:31:53;;;;;;;9.65;9.02;;;18.00;99.90;;;;;;7501631;26;20245;-79
2024/05/03 09:35:16;;;;;;;11.45;10.25;;;18.10;99.90;;;;;;7509451;26;20248;-79
2024/05/03 09:38:42;;;;;;;10.45;9.52;;;17.90;99.90;;;;;;7513842;26;20320;-78
2024/05/03 09:42:05;;;;;;;11.65;10.77;;;17.60;99.90;;;;;;7505245;26;20267;-81
2024/05/03 09:45:28;;;;;;;11.57;10.50;;;17.50;99.90;;;;;;7510042;26;20286;-80
2024/05/03 09:48:53;;;;;;;17.80;16.23;;;17.40;99.90;;;;;;7495373;26;20232;-81
2024/05/03 09:52:26;;;;;;;17.45;16.05;;;17.40;99.90;;;;;;7513147;26;20286;-80
2024/05/03 09:55:56;;;;;;;15.77;14.27;;;17.50;99.90;;;;;;7520040;26;20228;-79
2024/05/03 09:59:20;;;;;;;12.18;11.30;;;17.60;99.90;;;;;;7509168;26;20337;-77
2024/05/03 10:02:52;;;;;;;12.48;11.32;;;17.70;99.90;;;;;;7518830;26;20589;-80
2024/05/03 10:06:15;;;;;;;11.13;10.15;;;17.70;99.90;;;;;;7495228;26;20278;-80
2024/05/03 10:09:40;;;;;;;10.93;10.05;;;17.50;99.90;;;;;;7513857;26;20270;-78
2024/05/03 10:13:06;;;;;;;12.65;11.60;;;17.40;99.90;;;;;;7498360;26;20783;-82
2024/05/03 10:16:30;;;;;;;10.63;9.73;;;17.10;99.90;;;;;;7518054;26;20283;-79
2024/05/03 10:19:57;;;;;;;12.32;10.55;;;17.00;99.90;;;;;;7527339;26;20471;-78
2024/05/03 10:23:22;;;;;;;14.00;12.80;;;17.00;99.90;;;;;;7528017;26;20308;-78
2024/05/03 10:26:46;;;;;;;10.00;9.30;;;17.10;99.90;;;;;;7508304;26;20639;-79
2024/05/03 10:30:22;;;;;;;12.07;10.93;;;17.10;99.90;;;;;;7514766;26;20721;-78
2024/05/03 10:33:54;;;;;;;13.30;12.18;;;17.00;99.90;;;;;;7508980;26;20571;-77
2024/05/03 10:37:21;;;;;;;14.57;13.38;;;16.90;99.90;;;;;;7501894;26;20569;-76
2024/05/03 10:40:46;;;;;;;17.92;16.20;;;16.80;99.90;;;;;;7518066;26;20271;-82
2024/05/03 10:44:09;;;;;;;17.90;16.27;;;16.40;99.90;;;;;;7519656;26;20271;-78
2024/05/03 10:47:34;;;;;;;17.92;16.08;;;16.10;99.90;;;;;;7514657;26;20244;-78
2024/05/03 10:50:58;;;;;;;16.83;15.35;;;16.00;99.90;;;;;;7522543;26;20641;-80
2024/05/03 10:54:23;;;;;;;16.73;15.15;;;16.00;99.90;;;;;;7522956;26;20233;-80
2024/05/03 10:57:46;;;;;;;19.13;17.30;;;15.90;99.90;;;;;;7518921;26;20233;-78
2024/05/03 11:01:14;;;;;;;17.95;16.42;;;15.90;99.90;;;;;;7517813;26;20267;-80
2024/05/03 11:04:40;;;;;;;15.32;13.88;;;15.90;99.90;;;;;;7526711;26;20228;-78
2024/05/03 11:08:03;;;;;;;13.63;12.52;;;16.00;99.90;;;;;;7513761;26;20229;-80
2024/05/03 11:11:26;;;;;;;16.90;15.55;;;16.00;99.90;;;;;;7514872;26;20338;-78
2024/05/03 11:14:50;;;;;;;21.58;19.50;;;16.00;99.90;;;;;;7525519;26;20240;-79
2024/05/03 11:18:13;;;;;;;15.27;14.00;;;16.00;99.90;;;;;;7499832;26;20360;-82
2024/05/03 11:21:49;;;;;;;14.88;13.63;;;16.00;99.90;;;;;;7520585;26;20330;-78
2024/05/03 11:25:12;;;;;;;13.27;12.27;;;16.20;99.90;;;;;;7516192;26;20232;-79
2024/05/03 11:28:35;;;;;;;12.05;11.05;;;16.10;99.90;;;;;;7504821;26;20636;-79
2024/05/03 11:31:58;;;;;;;10.57;9.80;;;16.00;99.90;;;;;;7509298;26;20232;-79
2024/05/03 11:35:23;;;;;;;10.95;9.85;;;16.10;99.90;;;;;;7510067;26;20236;-80
2024/05/03 11:38:50;;;;;;;10.07;9.27;;;16.20;99.90;;;;;;7504943;26;20229;-82
2024/05/03 11:42:14;;;;;;;10.07;9.27;;;16.40;99.90;;;;;;7528067;26;20240;-81
2024/05/03 11:45:38;;;;;;;8.65;7.88;;;16.50;99.90;;;;;;7517040;26;20253;-81
2024/05/03 11:49:04;;;;;;;7.28;6.78;;;16.50;99.90;;;;;;7498382;26;20336;-80
2024/05/03 11:52:27;;;;;;;5.93;5.47;;;16.60;99.90;;;;;;7500994;26;20228;-79
2024/05/03 11:55:53;;;;;;;6.15;5.55;;;16.50;99.90;;;;;;7499227;26;20279;-79
2024/05/03 11:59:17;;;;;;;4.72;4.25;;;16.60;99.90;;;;;;7513383;26;20231;-81
2024/05/03 12:02:40;;;;;;;6.47;5.97;;;16.60;99.90;;;;;;7489639;26;20229;-80
2024/05/03 12:06:04;;;;;;;5.05;4.65;;;16.80;99.90;;;;;;7499218;26;20241;-79
2024/05/03 12:09:26;;;;;;;5.18;4.68;;;16.90;99.90;;;;;;7506507;26;20233;-82
2024/05/03 12:12:52;;;;;;;5.03;4.72;;;17.00;99.90;;;;;;7499999;26;20228;-80
2024/05/03 12:16:15;;;;;;;4.85;4.55;;;17.10;99.90;;;;;;7518215;26;20221;-81
2024/05/03 12:19:38;;;;;;;4.13;3.92;;;17.20;99.90;;;;;;7509793;26;20228;-78
2024/05/03 12:23:01;;;;;;;4.28;4.07;;;17.30;99.90;;;;;;7499448;26;20241;-80
2024/05/03 12:26:24;;;;;;;5.28;4.97;;;17.30;99.90;;;;;;7491334;26;20318;-78
2024/05/03 12:29:50;;;;;;;4.45;4.03;;;17.30;99.90;;;;;;7506012;26;20279;-79
2024/05/03 12:33:13;;;;;;;3.50;3.20;;;17.40;99.90;;;;;;7511346;26;20236;-82
2024/05/03 12:36:36;;;;;;;3.63;3.42;;;17.10;99.90;;;;;;7494969;26;20735;-81
2024/05/03 12:40:00;;;;;;;4.28;3.92;;;16.70;99.90;;;;;;7502746;26;20236;-82
2024/05/03 12:43:24;;;;;;;3.60;3.40;;;16.70;99.90;;;;;;7507697;26;20731;-82
2024/05/03 12:46:50;;;;;;;4.25;4.05;;;16.80;99.90;;;;;;7510370;26;20237;-81
2024/05/03 12:50:13;;;;;;;3.20;3.00;;;17.10;99.90;;;;;;7509036;26;20274;-79
2024/05/03 12:53:36;;;;;;;3.50;3.20;;;17.00;99.90;;;;;;7521400;26;20232;-79
2024/05/03 12:56:59;;;;;;;3.47;3.22;;;16.60;99.90;;;;;;7495847;26;20746;-80
2024/05/03 13:00:22;;;;;;;5.45;5.18;;;16.80;99.90;;;;;;7527356;26;20240;-80
2024/05/03 13:03:48;;;;;;;3.47;3.17;;;17.10;99.90;;;;;;7523543;26;20243;-80
2024/05/03 13:07:11;;;;;;;2.75;2.65;;;17.30;99.90;;;;;;7502253;26;20748;-81
2024/05/03 13:14:09;;;;;;;2.85;2.65;;;17.40;99.90;;;;;;7509113;26;20235;-79
2024/05/03 13:17:32;;;;;;;3.55;3.35;;;17.40;99.90;;;;;;7494525;26;20275;-80
2024/05/03 13:20:58;;;;;;;2.30;2.20;;;17.40;99.90;;;;;;7523629;26;20746;-77
2024/05/03 13:24:20;;;;;;;2.80;2.70;;;17.40;99.90;;;;;;7525094;26;20233;-79
2024/05/03 13:27:44;;;;;;;2.92;2.50;;;17.50;99.90;;;;;;7516308;26;20575;-77
2024/05/03 13:31:07;;;;;;;3.10;2.90;;;17.50;99.90;;;;;;7502842;26;20284;-77
2024/05/03 13:34:30;;;;;;;3.08;2.90;;;18.20;99.90;;;;;;7508960;26;20241;-80
2024/05/03 13:37:55;;;;;;;5.43;5.03;;;18.50;99.90;;;;;;7495380;26;20233;-76
2024/05/03 13:41:19;;;;;;;3.00;2.80;;;18.00;99.90;;;;;;7490540;26;20225;-73
2024/05/03 13:44:42;;;;;;;15.50;13.60;;;17.80;99.90;;;;;;7515768;26;20279;-72
2024/05/03 13:48:05;;;;;;;18.98;15.35;;;17.20;99.90;;;;;;7502175;26;20306;-68
2024/05/03 13:51:29;;;;;;;16.90;15.15;;;17.60;99.90;;;;;;7517931;26;20609;-75
2024/05/03 13:54:54;;;;;;;2.67;2.33;;;17.80;99.90;;;;;;7526928;26;20228;-75
2024/05/03 13:58:17;;;;;;;4.55;4.15;;;18.20;99.90;;;;;;7520998;26;20267;-81
2024/05/03 14:01:40;;;;;;;2.58;2.47;;;18.50;99.90;;;;;;7526772;26;20232;-77
2024/05/03 14:05:03;;;;;;;3.13;2.30;;;18.20;99.90;;;;;;7526730;26;20228;-78
2024/05/03 14:08:27;;;;;;;2.58;2.20;;;18.10;99.90;;;;;;7498964;26;20271;-79
2024/05/03 14:11:52;;;;;;;2.80;2.65;;;17.90;99.90;;;;;;7510198;26;20232;-78
2024/05/03 14:15:16;;;;;;;2.17;2.08;;;18.00;99.90;;;;;;7526117;26;20240;-76
2024/05/03 14:18:39;;;;;;;1.98;1.90;;;17.40;99.90;;;;;;7500287;26;20234;-75
2024/05/03 14:22:02;;;;;;;2.00;1.90;;;16.90;99.90;;;;;;7511415;26;20305;-75
2024/05/03 14:25:25;;;;;;;2.42;2.17;;;17.20;99.90;;;;;;7526344;26;20237;-76
2024/05/03 14:28:51;;;;;;;2.25;2.15;;;17.40;99.90;;;;;;7489616;26;20234;-75
2024/05/03 14:32:14;;;;;;;2.60;2.50;;;17.40;99.90;;;;;;7517048;26;20232;-75
2024/05/03 14:35:37;;;;;;;2.10;2.00;;;17.00;99.90;;;;;;7530465;26;20232;-75
2024/05/03 14:39:00;;;;;;;2.42;2.33;;;17.00;99.90;;;;;;7531122;26;20229;-75
2024/05/03 14:42:23;;;;;;;2.08;1.98;;;17.00;99.90;;;;;;7530680;26;20267;-76
2024/05/03 14:45:49;;;;;;;2.13;2.03;;;16.90;99.90;;;;;;7530423;26;20719;-76
2024/05/03 14:49:12;;;;;;;2.35;2.25;;;17.20;99.90;;;;;;7496712;26;20241;-77
2024/05/03 14:52:37;;;;;;;1.73;1.63;;;17.30;99.90;;;;;;7529142;26;20336;-76
2024/05/03 14:56:01;;;;;;;2.00;1.90;;;17.00;99.90;;;;;;7500631;26;20230;-75
2024/05/03 14:59:24;;;;;;;2.22;2.00;;;16.90;99.90;;;;;;7511566;26;20256;-76
2024/05/03 15:02:50;;;;;;;2.45;2.35;;;17.20;99.90;;;;;;7531151;26;20232;-74
2024/05/03 15:06:13;;;;;;;2.47;2.28;;;17.30;99.90;;;;;;7530627;26;20340;-75
2024/05/03 15:09:36;;;;;;;2.60;2.50;;;17.00;99.90;;;;;;7521479;26;20713;-75
2024/05/03 15:12:59;;;;;;;2.63;2.42;;;17.30;99.90;;;;;;7522840;26;20832;-74
2024/05/03 15:16:22;;;;;;;2.72;2.63;;;17.20;99.90;;;;;;7504841;26;20232;-77
2024/05/03 15:19:48;;;;;;;5.28;2.22;;;17.50;99.90;;;;;;7527248;26;20718;-77
2024/05/03 15:23:11;;;;;;;2.08;1.98;;;17.50;99.90;;;;;;7497188;26;20689;-78
2024/05/03 15:26:34;;;;;;;4.32;4.03;;;17.00;99.90;;;;;;7521517;26;20812;-75
2024/05/03 15:29:57;;;;;;;3.53;3.25;;;16.60;99.90;;;;;;7504924;26;20233;-75
2024/05/03 15:33:20;;;;;;;2.55;2.33;;;16.40;99.90;;;;;;7503847;26;20233;-77
2024/05/03 15:36:46;;;;;;;2.58;2.47;;;16.80;99.90;;;;;;7518427;26;20244;-76
2024/05/03 15:40:10;;;;;;;2.22;2.13;;;17.10;99.90;;;;;;7511170;26;20276;-76
2024/05/03 15:43:33;;;;;;;3.50;3.22;;;16.90;99.90;;;;;;7520279;26;20228;-76
2024/05/03 15:46:56;;;;;;;2.75;2.55;;;16.80;99.90;;;;;;7490702;26;20233;-75
2024/05/03 15:50:19;;;;;;;2.20;2.00;;;16.50;99.90;;;;;;7524713;26;20734;-75
2024/05/03 15:53:45;;;;;;;2.45;2.35;;;16.60;99.90;;;;;;7517558;26;20229;-76
2024/05/03 15:57:08;;;;;;;4.95;2.58;;;16.80;99.90;;;;;;7504990;26;20304;-75
2024/05/03 16:00:32;;;;;;;2.33;2.22;;;17.00;99.90;;;;;;7508207;26;20228;-76
2024/05/03 16:03:55;;;;;;;3.30;3.10;;;17.00;99.90;;;;;;7528583;26;20763;-78
2024/05/03 16:07:20;;;;;;;2.45;2.35;;;17.10;99.90;;;;;;7511564;26;20240;-77
2024/05/03 16:10:45;;;;;;;4.10;3.80;;;16.90;99.90;;;;;;7523362;26;20232;-77
2024/05/03 16:14:09;;;;;;;2.88;2.67;;;17.10;99.90;;;;;;7507606;26;20742;-76
2024/05/03 16:17:32;;;;;;;3.92;3.55;;;16.90;99.90;;;;;;7529137;26;20228;-75
2024/05/03 16:20:55;;;;;;;2.42;2.33;;;17.00;99.90;;;;;;7519579;26;20225;-77
2024/05/03 16:24:18;;;;;;;2.85;2.53;;;16.80;99.90;;;;;;7527151;26;20340;-76
2024/05/03 16:27:43;;;;;;;2.88;2.78;;;16.80;99.90;;;;;;7519457;26;20341;-76
2024/05/03 16:31:07;;;;;;;2.15;2.05;;;16.50;99.90;;;;;;7514467;26;20345;-76
2024/05/03 16:34:30;;;;;;;2.00;1.90;;;16.50;99.90;;;;;;7527782;26;20229;-75
2024/05/03 16:37:53;;;;;;;2.60;2.45;;;16.50;99.90;;;;;;7523619;26;20232;-76
2024/05/03 16:41:16;;;;;;;2.05;1.95;;;16.50;99.90;;;;;;7527092;26;20228;-77
2024/05/03 16:44:41;;;;;;;2.85;2.65;;;16.50;99.90;;;;;;7527074;26;20827;-79
2024/05/03 16:48:05;;;;;;;2.35;2.25;;;16.20;99.90;;;;;;7524452;26;20241;-76
2024/05/03 16:51:28;;;;;;;3.00;2.80;;;16.20;99.90;;;;;;7526506;26;20267;-76
2024/05/03 16:54:51;;;;;;;2.65;2.55;;;16.00;99.90;;;;;;7503885;26;20537;-76
2024/05/03 16:58:14;;;;;;;1.92;1.83;;;15.70;99.90;;;;;;7520506;26;20313;-76
2024/05/03 17:01:39;;;;;;;2.22;2.13;;;15.50;99.90;;;;;;7515501;26;20275;-76
2024/05/03 17:05:02;;;;;;;2.05;1.92;;;15.40;99.90;;;;;;7509220;26;20267;-76
2024/05/03 17:08:27;;;;;;;3.75;3.55;;;15.30;99.90;;;;;;7526452;26;20274;-76
2024/05/03 17:11:50;;;;;;;2.50;2.40;;;15.20;99.90;;;;;;7526227;26;20232;-75
2024/05/03 17:15:13;;;;;;;2.58;2.38;;;15.10;99.90;;;;;;7526414;26;20240;-75
2024/05/03 17:18:39;;;;;;;2.22;2.10;;;15.10;99.90;;;;;;7518045;26;20275;-76
2024/05/03 17:22:02;;;;;;;2.63;2.53;;;15.10;99.90;;;;;;7527075;26;20594;-76
2024/05/03 17:25:25;;;;;;;2.63;2.53;;;15.20;99.90;;;;;;7519385;26;20233;-75
2024/05/03 17:28:48;;;;;;;2.47;2.38;;;15.20;99.90;;;;;;7526162;26;20270;-76
2024/05/03 17:32:11;;;;;;;3.08;2.88;;;15.30;99.90;;;;;;7526994;26;20586;-75
2024/05/03 17:35:37;;;;;;;2.50;2.33;;;15.00;99.90;;;;;;7526439;26;20228;-75